createdAt,value
2019-02-11T00:00:43.824Z,41.92
2019-02-11T00:01:49.251Z,40.98
2019-02-11T00:02:54.356Z,41.75
2019-02-11T00:04:00.035Z,38.75
2019-02-11T00:05:05.492Z,42.93
2019-02-11T00:06:10.545Z,44.88
2019-02-11T00:07:15.391Z,42.00
2019-02-11T00:08:20.259Z,40.38
2019-02-11T00:09:25.292Z,43.58
2019-02-11T00:10:30.419Z,44.67
2019-02-11T00:11:37.651Z,44.75
2019-02-11T00:12:46.086Z,44.45
2019-02-11T00:13:55.755Z,45.25
2019-02-11T00:15:00.656Z,41.58
2019-02-11T00:16:05.918Z,43.40
2019-02-11T00:17:10.882Z,44.20
2019-02-11T00:18:15.787Z,41.80
2019-02-11T00:19:20.673Z,42.17
2019-02-11T00:20:25.612Z,43.85
2019-02-11T00:21:30.383Z,43.10
2019-02-11T00:22:35.280Z,47.15
2019-02-11T00:23:40.196Z,43.35
2019-02-11T00:24:45.101Z,42.50
2019-02-11T00:25:50.065Z,42.93
2019-02-11T00:26:54.905Z,43.28
2019-02-11T00:27:59.952Z,41.80
2019-02-11T00:29:05.174Z,42.50
2019-02-11T00:30:10.273Z,44.13
2019-02-11T00:31:15.166Z,44.35
2019-02-11T00:32:20.120Z,41.73
2019-02-11T00:33:24.976Z,46.37
2019-02-11T00:34:30.080Z,47.95
2019-02-11T00:35:35.024Z,44.75
2019-02-11T00:36:39.885Z,42.73
2019-02-11T00:37:44.728Z,45.05
2019-02-11T00:38:49.492Z,46.83
2019-02-11T00:39:54.292Z,48.35
2019-02-11T00:40:59.014Z,46.88
2019-02-11T00:42:03.965Z,46.10
2019-02-11T00:43:08.831Z,49.45
2019-02-11T00:44:13.779Z,46.30
2019-02-11T00:45:18.704Z,50.25
2019-02-11T00:46:23.576Z,44.77
2019-02-11T00:47:28.410Z,43.38
2019-02-11T00:48:33.135Z,48.52
2019-02-11T00:49:37.986Z,45.43
2019-02-11T00:50:42.980Z,47.15
2019-02-11T00:51:47.947Z,44.23
2019-02-11T00:52:52.785Z,45.75
2019-02-11T00:53:57.557Z,49.45
2019-02-11T00:55:06.137Z,47.05
2019-02-11T00:56:11.005Z,50.10
2019-02-11T00:57:15.751Z,49.42
2019-02-11T00:58:20.573Z,48.02
2019-02-11T00:59:25.523Z,48.33
2019-02-11T01:00:30.616Z,43.78
2019-02-11T01:01:35.374Z,48.90
2019-02-11T01:02:40.112Z,49.83
2019-02-11T01:03:44.994Z,48.33
2019-02-11T01:04:49.884Z,50.65
2019-02-11T01:05:54.952Z,49.88
2019-02-11T01:06:59.843Z,48.35
2019-02-11T01:08:04.770Z,49.10
2019-02-11T01:09:09.769Z,52.03
2019-02-11T01:10:14.684Z,50.28
2019-02-11T01:11:19.415Z,46.98
2019-02-11T01:12:24.180Z,45.90
2019-02-11T01:13:29.184Z,51.13
2019-02-11T01:14:34.064Z,47.70
2019-02-11T01:15:39.037Z,52.40
2019-02-11T01:16:43.776Z,58.70
2019-02-11T01:17:48.755Z,48.50
2019-02-11T01:18:53.596Z,46.30
2019-02-11T01:19:58.557Z,45.43
2019-02-11T01:21:03.336Z,46.70
2019-02-11T01:22:08.256Z,46.60
2019-02-11T01:23:13.082Z,49.13
2019-02-11T01:24:17.940Z,47.60
2019-02-11T01:25:22.807Z,50.05
2019-02-11T01:26:27.659Z,50.30
2019-02-11T01:27:32.543Z,42.98
2019-02-11T01:28:37.428Z,47.17
2019-02-11T01:29:42.185Z,45.28
2019-02-11T01:30:47.058Z,41.90
2019-02-11T01:31:51.876Z,47.75
2019-02-11T01:32:56.812Z,50.28
2019-02-11T01:34:01.805Z,47.88
2019-02-11T01:35:07.145Z,46.30
2019-02-11T01:36:11.899Z,48.15
2019-02-11T01:37:16.818Z,48.50
2019-02-11T01:38:21.637Z,47.50
2019-02-11T01:39:26.465Z,47.25
2019-02-11T01:40:31.299Z,46.53
2019-02-11T01:41:36.063Z,48.83
2019-02-11T01:42:41.050Z,47.08
2019-02-11T01:43:45.916Z,47.73
2019-02-11T01:44:50.724Z,43.28
2019-02-11T01:45:58.915Z,49.30
2019-02-11T01:47:03.770Z,45.38
2019-02-11T01:48:08.548Z,48.40
2019-02-11T01:49:13.342Z,48.35
2019-02-11T01:50:18.263Z,44.05
2019-02-11T01:51:23.144Z,46.10
2019-02-11T01:52:27.899Z,44.90
2019-02-11T01:53:32.641Z,48.25
2019-02-11T01:54:37.540Z,47.67
2019-02-11T01:55:42.464Z,44.42
2019-02-11T01:56:47.204Z,45.70
2019-02-11T01:57:52.000Z,42.60
2019-02-11T01:58:57.392Z,47.62
2019-02-11T02:00:02.271Z,45.35
2019-02-11T02:01:07.184Z,47.13
2019-02-11T02:02:12.032Z,42.95
2019-02-11T02:03:16.819Z,45.90
2019-02-11T02:04:21.570Z,42.83
2019-02-11T02:05:26.607Z,44.13
2019-02-11T02:06:31.515Z,45.15
2019-02-11T02:07:36.420Z,45.52
2019-02-11T02:08:41.182Z,44.13
2019-02-11T02:09:46.042Z,42.35
2019-02-11T02:10:51.032Z,43.38
2019-02-11T02:11:56.017Z,46.90
2019-02-11T02:13:00.808Z,43.87
2019-02-11T02:14:05.624Z,47.73
2019-02-11T02:15:11.044Z,43.87
2019-02-11T02:16:15.945Z,41.88
2019-02-11T02:17:20.712Z,42.03
2019-02-11T02:18:25.597Z,42.27
2019-02-11T02:19:30.521Z,40.30
2019-02-11T02:20:35.482Z,43.10
2019-02-11T02:21:40.239Z,43.17
2019-02-11T02:22:45.207Z,42.38
2019-02-11T02:23:50.116Z,45.17
2019-02-11T02:24:55.100Z,44.25
2019-02-11T02:25:59.860Z,45.67
2019-02-11T02:27:04.825Z,43.92
2019-02-11T02:28:09.707Z,41.23
2019-02-11T02:29:14.551Z,45.03
2019-02-11T02:30:19.299Z,40.58
2019-02-11T02:31:24.073Z,42.83
2019-02-11T02:32:28.943Z,40.45
2019-02-11T02:33:33.996Z,42.17
2019-02-11T02:34:38.824Z,42.13
2019-02-11T02:35:43.711Z,40.73
2019-02-11T02:36:48.485Z,41.85
2019-02-11T02:37:53.344Z,39.05
2019-02-11T02:38:58.209Z,40.00
2019-02-11T02:40:03.147Z,41.48
2019-02-11T02:41:07.929Z,41.10
2019-02-11T02:42:12.708Z,43.95
2019-02-11T02:43:17.587Z,42.58
2019-02-11T02:44:22.486Z,43.05
2019-02-11T02:45:27.404Z,43.35
2019-02-11T02:46:32.163Z,44.10
2019-02-11T02:47:37.077Z,38.78
2019-02-11T02:48:41.928Z,39.78
2019-02-11T02:49:46.768Z,41.77
2019-02-11T02:50:51.716Z,42.65
2019-02-11T02:51:56.547Z,39.45
2019-02-11T02:53:01.392Z,42.93
2019-02-11T02:54:06.170Z,38.58
2019-02-11T02:55:11.030Z,38.60
2019-02-11T02:56:16.028Z,38.88
2019-02-11T02:57:21.012Z,39.50
2019-02-11T02:58:36.787Z,40.73
2019-02-11T02:59:51.532Z,45.15
2019-02-11T03:01:06.760Z,38.55
2019-02-11T03:02:18.488Z,39.80
2019-02-11T03:03:23.407Z,40.08
2019-02-11T03:04:28.182Z,41.20
2019-02-11T03:05:33.271Z,37.90
2019-02-11T03:06:38.180Z,38.80
2019-02-11T03:07:43.055Z,40.08
2019-02-11T03:08:47.853Z,40.20
2019-02-11T03:09:52.774Z,39.90
2019-02-11T03:10:57.660Z,38.90
2019-02-11T03:12:02.557Z,40.88
2019-02-11T03:13:07.405Z,38.92
2019-02-11T03:14:12.300Z,40.80
2019-02-11T03:15:17.127Z,39.83
2019-02-11T03:16:22.120Z,41.15
2019-02-11T03:17:27.072Z,39.33
2019-02-11T03:18:31.813Z,41.35
2019-02-11T03:19:36.730Z,37.35
2019-02-11T03:20:41.631Z,39.13
2019-02-11T03:21:46.543Z,40.63
2019-02-11T03:22:51.385Z,38.20
2019-02-11T03:23:56.254Z,38.40
2019-02-11T03:25:01.333Z,36.05
2019-02-11T03:26:06.176Z,42.50
2019-02-11T03:27:10.949Z,36.75
2019-02-11T03:28:16.008Z,37.85
2019-02-11T03:29:21.020Z,39.60
2019-02-11T03:30:25.784Z,38.48
2019-02-11T03:31:30.580Z,42.23
2019-02-11T03:32:35.445Z,38.60
2019-02-11T03:33:40.229Z,37.15
2019-02-11T03:34:45.113Z,41.00
2019-02-11T03:35:49.944Z,38.92
2019-02-11T03:36:54.968Z,39.78
2019-02-11T03:37:59.797Z,37.78
2019-02-11T03:39:05.840Z,40.15
2019-02-11T03:40:10.823Z,37.17
2019-02-11T03:41:15.768Z,39.18
2019-02-11T03:42:20.560Z,38.92
2019-02-11T03:43:25.458Z,38.48
2019-02-11T03:44:30.328Z,40.92
2019-02-11T03:45:35.182Z,39.70
2019-02-11T03:46:39.956Z,40.33
2019-02-11T03:47:44.862Z,41.73
2019-02-11T03:48:49.749Z,38.05
2019-02-11T03:49:54.636Z,40.65
2019-02-11T03:50:59.501Z,39.27
2019-02-11T03:52:04.551Z,37.28
2019-02-11T03:53:09.424Z,39.23
2019-02-11T03:54:14.361Z,39.10
2019-02-11T03:55:19.162Z,34.58
2019-02-11T03:56:24.086Z,35.08
2019-02-11T03:57:28.957Z,38.23
2019-02-11T03:58:33.940Z,39.42
2019-02-11T03:59:38.813Z,40.40
2019-02-11T04:00:43.785Z,38.25
2019-02-11T04:01:48.556Z,37.85
2019-02-11T04:02:53.332Z,38.40
2019-02-11T04:03:58.196Z,38.23
2019-02-11T04:05:03.130Z,37.13
2019-02-11T04:06:08.039Z,37.78
2019-02-11T04:07:12.856Z,36.55
2019-02-11T04:08:17.813Z,35.23
2019-02-11T04:09:22.917Z,34.75
2019-02-11T04:10:27.912Z,35.45
2019-02-11T04:11:32.649Z,36.75
2019-02-11T04:12:37.562Z,36.45
2019-02-11T04:13:42.561Z,35.68
2019-02-11T04:14:47.594Z,35.45
2019-02-11T04:15:52.339Z,35.58
2019-02-11T04:16:57.226Z,35.60
2019-02-11T04:18:02.172Z,35.70
2019-02-11T04:19:07.045Z,37.67
2019-02-11T04:20:12.093Z,36.85
2019-02-11T04:21:17.140Z,38.67
2019-02-11T04:22:22.140Z,36.08
2019-02-11T04:23:26.873Z,38.95
2019-02-11T04:24:31.620Z,39.50
2019-02-11T04:25:36.536Z,34.65
2019-02-11T04:26:41.426Z,35.60
2019-02-11T04:27:46.391Z,35.52
2019-02-11T04:28:51.113Z,38.48
2019-02-11T04:29:55.964Z,34.13
2019-02-11T04:31:00.851Z,36.05
2019-02-11T04:32:05.672Z,38.13
2019-02-11T04:33:10.572Z,39.18
2019-02-11T04:34:15.471Z,36.55
2019-02-11T04:35:20.268Z,39.80
2019-02-11T04:36:26.511Z,39.03
2019-02-11T04:37:31.527Z,38.60
2019-02-11T04:38:36.362Z,35.73
2019-02-11T04:39:41.139Z,36.75
2019-02-11T04:40:46.025Z,39.48
2019-02-11T04:41:50.920Z,37.73
2019-02-11T04:42:55.835Z,38.80
2019-02-11T04:44:00.696Z,34.60
2019-02-11T04:45:06.188Z,41.00
2019-02-11T04:46:11.081Z,38.63
2019-02-11T04:47:16.055Z,37.33
2019-02-11T04:48:20.850Z,38.58
2019-02-11T04:49:25.616Z,36.15
2019-02-11T04:50:30.557Z,39.55
2019-02-11T04:51:35.439Z,35.55
2019-02-11T04:52:40.224Z,36.73
2019-02-11T04:53:44.979Z,34.98
2019-02-11T04:54:50.048Z,37.28
2019-02-11T04:55:54.925Z,35.90
2019-02-11T04:56:59.695Z,34.25
2019-02-11T04:58:05.711Z,37.23
2019-02-11T04:59:10.592Z,32.42
2019-02-11T05:00:15.721Z,36.35
2019-02-11T05:01:20.506Z,37.75
2019-02-11T05:02:25.369Z,32.67
2019-02-11T05:03:30.192Z,37.08
2019-02-11T05:04:38.099Z,37.03
2019-02-11T05:05:42.972Z,33.18
2019-02-11T05:06:47.806Z,33.98
2019-02-11T05:07:52.738Z,33.30
2019-02-11T05:08:57.623Z,36.35
2019-02-11T05:10:02.676Z,36.10
2019-02-11T05:11:07.572Z,34.83
2019-02-11T05:12:12.371Z,35.30
2019-02-11T05:13:17.319Z,33.78
2019-02-11T05:14:22.178Z,34.20
2019-02-11T05:15:27.176Z,34.25
2019-02-11T05:16:31.884Z,33.58
2019-02-11T05:17:36.784Z,32.30
2019-02-11T05:18:41.684Z,31.97
2019-02-11T05:19:46.556Z,34.63
2019-02-11T05:20:51.342Z,31.77
2019-02-11T05:21:56.273Z,30.92
2019-02-11T05:23:01.112Z,30.30
2019-02-11T05:24:06.082Z,33.42
2019-02-11T05:25:11.155Z,32.80
2019-02-11T05:26:15.940Z,31.97
2019-02-11T05:27:20.925Z,34.15
2019-02-11T05:28:26.022Z,31.73
2019-02-11T05:29:31.152Z,34.38
2019-02-11T05:30:36.072Z,31.57
2019-02-11T05:31:41.018Z,33.78
2019-02-11T05:32:45.924Z,31.90
2019-02-11T05:33:50.920Z,34.10
2019-02-11T05:34:55.965Z,30.92
2019-02-11T05:36:00.844Z,29.25
2019-02-11T05:37:05.788Z,30.12
2019-02-11T05:38:10.623Z,29.55
2019-02-11T05:39:15.613Z,31.60
2019-02-11T05:40:20.667Z,27.45
2019-02-11T05:41:25.523Z,33.73
2019-02-11T05:42:30.307Z,27.85
2019-02-11T05:43:35.248Z,30.57
2019-02-11T05:44:40.146Z,28.77
2019-02-11T05:45:45.112Z,28.07
2019-02-11T05:46:49.892Z,26.82
2019-02-11T05:47:54.753Z,27.25
2019-02-11T05:48:59.844Z,26.68
2019-02-11T05:50:05.396Z,26.87
2019-02-11T05:51:10.469Z,28.38
2019-02-11T05:52:15.489Z,28.65
2019-02-11T05:53:20.309Z,27.87
2019-02-11T05:54:25.302Z,26.97
2019-02-11T05:55:30.168Z,27.98
2019-02-11T05:56:35.144Z,30.62
2019-02-11T05:57:39.935Z,23.77
2019-02-11T05:58:45.049Z,26.73
2019-02-11T05:59:50.012Z,27.45
2019-02-11T06:00:54.957Z,28.15
2019-02-11T06:01:59.709Z,27.27
2019-02-11T06:03:04.592Z,29.75
2019-02-11T06:04:09.474Z,28.45
2019-02-11T06:05:14.269Z,26.60
2019-02-11T06:06:19.373Z,26.90
2019-02-11T06:07:24.155Z,28.62
2019-02-11T06:08:29.084Z,27.10
2019-02-11T06:09:34.242Z,24.80
2019-02-11T06:10:39.170Z,28.55
2019-02-11T06:11:44.172Z,26.85
2019-02-11T06:12:49.253Z,24.47
2019-02-11T06:13:54.348Z,23.10
2019-02-11T06:15:04.272Z,23.32
2019-02-11T06:16:05.922Z,20.48
2019-02-11T06:17:10.816Z,19.45
2019-02-11T06:18:15.817Z,19.60
2019-02-11T06:19:20.720Z,17.45
2019-02-11T06:20:25.647Z,18.60
2019-02-11T06:21:30.479Z,19.17
2019-02-11T06:22:35.428Z,18.55
2019-02-11T06:23:40.315Z,17.73
2019-02-11T06:24:45.388Z,16.87
2019-02-11T06:25:50.375Z,16.57
2019-02-11T06:26:55.324Z,17.48
2019-02-11T06:28:00.188Z,17.02
2019-02-11T06:29:05.242Z,17.35
2019-02-11T06:30:11.370Z,17.95
2019-02-11T06:31:16.181Z,18.60
2019-02-11T06:32:20.914Z,16.67
2019-02-11T06:33:25.920Z,17.98
2019-02-11T06:34:30.876Z,16.42
2019-02-11T06:35:36.764Z,16.77
2019-02-11T06:36:41.744Z,17.77
2019-02-11T06:37:46.756Z,15.78
2019-02-11T06:38:51.553Z,16.40
2019-02-11T06:39:56.423Z,14.35
2019-02-11T06:41:01.557Z,16.62
2019-02-11T06:42:06.344Z,14.20
2019-02-11T06:43:11.115Z,14.55
2019-02-11T06:44:16.213Z,16.02
2019-02-11T06:45:21.060Z,15.53
2019-02-11T06:46:26.225Z,17.32
2019-02-11T06:47:31.117Z,17.40
2019-02-11T06:48:36.040Z,16.97
2019-02-11T06:49:41.061Z,19.90
2019-02-11T06:50:45.840Z,19.42
2019-02-11T06:51:50.695Z,20.68
2019-02-11T06:52:55.456Z,23.38
2019-02-11T06:54:00.479Z,20.35
2019-02-11T06:55:06.171Z,19.82
2019-02-11T06:56:11.352Z,18.42
2019-02-11T06:57:16.254Z,17.80
2019-02-11T06:58:21.360Z,16.82
2019-02-11T06:59:26.560Z,16.02
2019-02-11T07:00:31.715Z,14.15
2019-02-11T07:01:37.296Z,13.80
2019-02-11T07:02:42.821Z,14.18
2019-02-11T07:03:47.790Z,14.15
2019-02-11T07:04:52.931Z,16.15
2019-02-11T07:05:57.913Z,14.98
2019-02-11T07:07:02.875Z,13.62
2019-02-11T07:08:08.147Z,14.68
2019-02-11T07:09:13.376Z,12.88
2019-02-11T07:10:18.480Z,16.00
2019-02-11T07:11:23.324Z,14.93
2019-02-11T07:12:28.252Z,14.60
2019-02-11T07:13:33.237Z,15.80
2019-02-11T07:14:38.470Z,13.38
2019-02-11T07:15:43.576Z,13.85
2019-02-11T07:16:48.726Z,13.80
2019-02-11T07:17:56.631Z,13.85
2019-02-11T07:19:01.768Z,15.35
2019-02-11T07:20:07.056Z,12.85
2019-02-11T07:21:13.195Z,13.10
2019-02-11T07:22:18.364Z,11.90
2019-02-11T07:23:23.214Z,12.45
2019-02-11T07:24:28.250Z,14.03
2019-02-11T07:25:33.316Z,11.93
2019-02-11T07:26:38.405Z,13.45
2019-02-11T07:27:43.472Z,11.45
2019-02-11T07:28:48.489Z,12.98
2019-02-11T07:29:53.663Z,11.48
2019-02-11T07:30:58.683Z,13.22
2019-02-11T07:32:03.605Z,13.10
2019-02-11T07:33:08.813Z,12.18
2019-02-11T07:34:13.819Z,13.00
2019-02-11T07:35:18.637Z,11.25
2019-02-11T07:36:23.660Z,12.13
2019-02-11T07:37:28.801Z,11.28
2019-02-11T07:38:33.904Z,11.05
2019-02-11T07:39:38.844Z,10.00
2019-02-11T07:40:43.758Z,10.72
2019-02-11T07:42:06.557Z,10.90
2019-02-11T07:43:45.604Z,11.40
2019-02-11T07:44:56.491Z,10.82
2019-02-11T07:46:32.634Z,10.32
2019-02-11T07:47:37.672Z,10.70
2019-02-11T07:48:42.634Z,10.70
2019-02-11T07:49:47.679Z,10.40
2019-02-11T07:50:52.851Z,11.75
2019-02-11T07:51:58.016Z,11.60
2019-02-11T07:53:02.835Z,10.80
2019-02-11T07:54:07.845Z,10.55
2019-02-11T07:55:12.860Z,10.72
2019-02-11T07:56:18.004Z,11.15
2019-02-11T07:57:22.788Z,10.45
2019-02-11T07:58:27.684Z,10.78
2019-02-11T07:59:32.835Z,10.60
2019-02-11T08:00:38.144Z,9.53
2019-02-11T08:01:42.978Z,16.85
2019-02-11T08:02:47.976Z,9.60
2019-02-11T08:03:53.073Z,10.35
2019-02-11T08:04:58.237Z,10.45
2019-02-11T08:06:03.176Z,12.10
2019-02-11T08:07:08.204Z,10.78
2019-02-11T08:08:13.043Z,9.18
2019-02-11T08:09:18.236Z,9.38
2019-02-11T08:10:23.444Z,11.15
2019-02-11T08:11:28.696Z,9.85
2019-02-11T08:12:33.795Z,12.90
2019-02-11T08:13:38.660Z,10.13
2019-02-11T08:14:43.706Z,10.88
2019-02-11T08:15:49.028Z,12.18
2019-02-11T08:16:53.919Z,10.80
2019-02-11T08:17:58.972Z,10.20
2019-02-11T08:19:04.244Z,9.78
2019-02-11T08:20:09.427Z,7.75
2019-02-11T08:21:14.409Z,7.75
2019-02-11T08:22:19.310Z,8.20
2019-02-11T08:23:24.445Z,8.90
2019-02-11T08:24:29.543Z,9.98
2019-02-11T08:25:34.476Z,7.22
2019-02-11T08:26:39.647Z,5.87
2019-02-11T08:27:44.596Z,5.58
2019-02-11T08:28:49.561Z,5.45
2019-02-11T08:29:54.438Z,6.35
2019-02-11T08:30:59.467Z,6.47
2019-02-11T08:32:04.462Z,3.33
2019-02-11T08:33:09.459Z,4.75
2019-02-11T08:34:14.374Z,4.22
2019-02-11T08:35:20.193Z,7.78
2019-02-11T08:36:25.124Z,11.73
2019-02-11T08:37:30.019Z,9.23
2019-02-11T08:38:34.919Z,8.28
2019-02-11T08:39:40.266Z,4.55
2019-02-11T08:40:45.403Z,5.37
2019-02-11T08:41:50.313Z,4.90
2019-02-11T08:42:55.367Z,5.42
2019-02-11T08:44:00.329Z,3.95
2019-02-11T08:45:06.237Z,4.20
2019-02-11T08:46:13.116Z,3.47
2019-02-11T08:47:19.435Z,6.92
2019-02-11T08:48:24.719Z,17.52
2019-02-11T08:49:30.121Z,8.05
2019-02-11T08:50:35.607Z,7.60
2019-02-11T08:51:40.536Z,6.58
2019-02-11T08:52:45.304Z,4.53
2019-02-11T08:53:50.184Z,6.37
2019-02-11T08:54:55.205Z,4.15
2019-02-11T08:56:00.064Z,4.95
2019-02-11T08:57:04.959Z,5.67
2019-02-11T08:58:09.838Z,5.15
2019-02-11T08:59:14.797Z,4.85
2019-02-11T09:00:19.636Z,5.53
2019-02-11T09:01:24.557Z,5.90
2019-02-11T09:02:29.597Z,5.28
2019-02-11T09:03:34.525Z,5.97
2019-02-11T09:04:39.575Z,8.38
2019-02-11T09:05:44.696Z,3.27
2019-02-11T09:06:49.873Z,3.72
2019-02-11T09:07:54.731Z,6.45
2019-02-11T09:08:59.667Z,5.35
2019-02-11T09:10:04.630Z,4.92
2019-02-11T09:11:10.197Z,3.67
2019-02-11T09:12:15.041Z,5.70
2019-02-11T09:13:20.028Z,7.22
2019-02-11T09:14:24.880Z,10.35
2019-02-11T09:15:29.827Z,16.10
2019-02-11T09:16:34.909Z,8.40
2019-02-11T09:17:39.804Z,8.30
2019-02-11T09:18:44.526Z,5.62
2019-02-11T09:19:49.484Z,6.50
2019-02-11T09:20:54.382Z,10.00
2019-02-11T09:22:07.095Z,9.50
2019-02-11T09:23:05.740Z,29.85
2019-02-11T09:24:10.980Z,14.07
2019-02-11T09:25:16.104Z,9.00
2019-02-11T09:26:21.068Z,6.37
2019-02-11T09:27:25.908Z,3.10
2019-02-11T09:28:30.853Z,2.67
2019-02-11T09:29:35.988Z,3.12
2019-02-11T09:30:41.553Z,6.85
2019-02-11T09:31:47.244Z,13.75
2019-02-11T09:32:52.763Z,15.63
2019-02-11T09:33:58.281Z,5.60
2019-02-11T09:35:03.691Z,9.43
2019-02-11T09:36:09.208Z,5.30
2019-02-11T09:37:14.199Z,7.20
2019-02-11T09:38:19.379Z,11.57
2019-02-11T09:39:25.008Z,5.20
2019-02-11T09:40:29.837Z,10.08
2019-02-11T09:41:34.741Z,5.72
2019-02-11T09:42:39.690Z,3.95
2019-02-11T09:43:44.639Z,2.70
2019-02-11T09:44:49.524Z,5.87
2019-02-11T09:45:54.763Z,4.35
2019-02-11T09:46:59.609Z,3.72
2019-02-11T09:48:04.688Z,9.43
2019-02-11T09:49:09.720Z,5.70
2019-02-11T09:50:36.605Z,7.92
2019-02-11T09:51:44.656Z,5.00
2019-02-11T09:52:50.736Z,5.45
2019-02-11T09:53:56.036Z,7.22
2019-02-11T09:55:00.963Z,4.28
2019-02-11T09:56:05.884Z,7.25
2019-02-11T09:57:10.882Z,6.12
2019-02-11T09:58:15.803Z,7.12
2019-02-11T09:59:20.640Z,5.10
2019-02-11T10:00:25.920Z,3.45
2019-02-11T10:01:30.758Z,4.95
2019-02-11T10:02:35.769Z,4.25
2019-02-11T10:03:40.723Z,6.17
2019-02-11T10:04:45.651Z,5.47
2019-02-11T10:05:50.554Z,6.10
2019-02-11T10:06:55.963Z,5.17
2019-02-11T10:08:01.009Z,4.17
2019-02-11T10:09:06.969Z,4.42
2019-02-11T10:10:15.051Z,5.20
2019-02-11T10:11:20.008Z,5.55
2019-02-11T10:12:25.331Z,5.08
2019-02-11T10:13:30.242Z,4.55
2019-02-11T10:14:35.302Z,4.35
2019-02-11T10:15:40.411Z,5.28
2019-02-11T10:16:45.213Z,4.42
2019-02-11T10:17:50.185Z,4.28
2019-02-11T10:18:55.175Z,4.45
2019-02-11T10:20:00.123Z,3.22
2019-02-11T10:21:05.204Z,3.52
2019-02-11T10:22:10.324Z,3.95
2019-02-11T10:23:15.499Z,4.70
2019-02-11T10:24:20.405Z,5.45
2019-02-11T10:25:26.449Z,5.12
2019-02-11T10:26:32.440Z,6.10
2019-02-11T10:27:37.228Z,3.62
2019-02-11T10:28:42.375Z,4.78
2019-02-11T10:29:47.369Z,3.92
2019-02-11T10:30:52.374Z,4.42
2019-02-11T10:31:57.110Z,4.10
2019-02-11T10:33:01.944Z,4.45
2019-02-11T10:34:06.864Z,5.15
2019-02-11T10:35:12.271Z,3.70
2019-02-11T10:36:18.242Z,4.92
2019-02-11T10:37:23.339Z,5.62
2019-02-11T10:38:36.072Z,5.50
2019-02-11T10:39:34.996Z,5.12
2019-02-11T10:40:39.794Z,6.00
2019-02-11T10:41:44.651Z,5.83
2019-02-11T10:42:49.678Z,5.53
2019-02-11T10:43:54.628Z,6.65
2019-02-11T10:45:00.331Z,4.92
2019-02-11T10:46:05.308Z,6.70
2019-02-11T10:47:10.239Z,4.75
2019-02-11T10:48:15.119Z,5.22
2019-02-11T10:49:20.109Z,5.78
2019-02-11T10:50:24.911Z,6.17
2019-02-11T10:51:29.673Z,5.35
2019-02-11T10:52:34.449Z,10.90
2019-02-11T10:53:39.227Z,5.78
2019-02-11T10:54:44.260Z,5.30
2019-02-11T10:55:49.487Z,5.70
2019-02-11T10:56:54.857Z,5.12
2019-02-11T10:58:00.457Z,5.60
2019-02-11T10:59:06.057Z,7.33
2019-02-11T11:00:17.858Z,5.60
2019-02-11T11:01:23.868Z,8.50
2019-02-11T11:02:30.097Z,6.78
2019-02-11T11:03:35.829Z,7.35
2019-02-11T11:04:41.577Z,7.25
2019-02-11T11:05:47.459Z,7.53
2019-02-11T11:06:53.097Z,9.38
2019-02-11T11:07:58.537Z,6.92
2019-02-11T11:09:04.738Z,8.30
2019-02-11T11:10:14.216Z,9.95
2019-02-11T11:11:19.698Z,8.18
2019-02-11T11:12:25.656Z,8.23
2019-02-11T11:13:30.977Z,7.87
2019-02-11T11:14:35.775Z,9.68
2019-02-11T11:15:40.656Z,10.30
2019-02-11T11:16:45.416Z,8.95
2019-02-11T11:17:50.300Z,10.50
2019-02-11T11:18:55.099Z,10.82
2019-02-11T11:19:59.936Z,7.20
2019-02-11T11:21:06.288Z,10.32
2019-02-11T11:22:11.292Z,8.30
2019-02-11T11:23:16.477Z,8.78
2019-02-11T11:24:21.584Z,6.72
2019-02-11T11:25:26.514Z,12.35
2019-02-11T11:26:31.440Z,12.65
2019-02-11T11:27:36.451Z,7.33
2019-02-11T11:28:41.548Z,15.58
2019-02-11T11:29:47.323Z,22.42
2019-02-11T11:30:52.340Z,16.95
2019-02-11T11:31:57.478Z,16.67
2019-02-11T11:33:02.747Z,7.65
2019-02-11T11:34:07.720Z,9.95
2019-02-11T11:35:13.164Z,7.22
2019-02-11T11:36:18.310Z,4.60
2019-02-11T11:37:23.280Z,5.45
2019-02-11T11:38:28.774Z,4.90
2019-02-11T11:39:33.783Z,5.17
2019-02-11T11:40:38.706Z,4.25
2019-02-11T11:41:43.604Z,5.78
2019-02-11T11:42:48.698Z,4.22
2019-02-11T11:43:54.141Z,5.37
2019-02-11T11:44:59.196Z,5.17
2019-02-11T11:46:04.343Z,4.90
2019-02-11T11:47:09.132Z,11.10
2019-02-11T11:48:13.900Z,6.65
2019-02-11T11:49:18.741Z,9.63
2019-02-11T11:50:23.880Z,7.67
2019-02-11T11:51:28.978Z,7.75
2019-02-11T11:52:34.291Z,6.03
2019-02-11T11:53:39.228Z,6.92
2019-02-11T11:54:44.024Z,5.72
2019-02-11T11:55:48.828Z,6.97
2019-02-11T11:56:54.142Z,6.65
2019-02-11T11:57:59.780Z,6.12
2019-02-11T11:59:05.278Z,5.85
2019-02-11T12:00:25.199Z,5.05
2019-02-11T12:01:30.673Z,5.78
2019-02-11T12:02:36.311Z,11.48
2019-02-11T12:03:41.633Z,11.95
2019-02-11T12:04:46.460Z,6.62
2019-02-11T12:05:51.489Z,5.28
2019-02-11T12:06:56.359Z,8.83
2019-02-11T12:08:01.126Z,8.40
2019-02-11T12:09:06.816Z,6.85
2019-02-11T12:10:11.768Z,10.23
2019-02-11T12:11:16.728Z,5.60
2019-02-11T12:12:21.610Z,4.72
2019-02-11T12:13:27.338Z,6.33
2019-02-11T12:14:32.696Z,12.93
2019-02-11T12:15:38.451Z,9.55
2019-02-11T12:16:55.901Z,8.45
2019-02-11T12:17:50.353Z,10.53
2019-02-11T12:18:55.879Z,7.08
2019-02-11T12:20:00.920Z,12.35
2019-02-11T12:21:05.983Z,10.35
2019-02-11T12:22:12.803Z,6.95
2019-02-11T12:23:17.642Z,8.13
2019-02-11T12:24:22.540Z,9.90
2019-02-11T12:25:27.692Z,7.67
2019-02-11T12:26:32.627Z,7.78
2019-02-11T12:27:37.503Z,9.93
2019-02-11T12:28:42.555Z,7.03
2019-02-11T12:29:47.468Z,8.10
2019-02-11T12:30:53.635Z,10.68
2019-02-11T12:31:58.885Z,11.90
2019-02-11T12:33:03.908Z,9.33
2019-02-11T12:34:09.058Z,8.65
2019-02-11T12:35:14.411Z,8.85
2019-02-11T12:36:19.408Z,11.05
2019-02-11T12:37:24.351Z,11.08
2019-02-11T12:38:29.366Z,12.43
2019-02-11T12:39:34.356Z,9.48
2019-02-11T12:40:39.528Z,9.60
2019-02-11T12:41:44.417Z,10.05
2019-02-11T12:42:52.822Z,12.58
2019-02-11T12:43:56.004Z,10.58
2019-02-11T12:45:01.203Z,7.83
2019-02-11T12:46:06.139Z,9.75
2019-02-11T12:47:14.686Z,8.60
2019-02-11T12:48:17.620Z,9.63
2019-02-11T12:49:22.568Z,8.30
2019-02-11T12:50:27.411Z,8.38
2019-02-11T12:51:32.293Z,12.00
2019-02-11T12:52:37.286Z,15.13
2019-02-11T12:53:42.042Z,9.50
2019-02-11T12:54:46.932Z,10.13
2019-02-11T12:55:52.163Z,8.30
2019-02-11T12:56:57.090Z,9.03
2019-02-11T12:58:01.818Z,9.23
2019-02-11T12:59:06.665Z,9.85
2019-02-11T13:00:17.088Z,8.58
2019-02-11T13:01:20.848Z,8.05
2019-02-11T13:02:25.595Z,8.10
2019-02-11T13:03:30.915Z,11.18
2019-02-11T13:04:35.601Z,9.65
2019-02-11T13:05:45.690Z,8.10
2019-02-11T13:06:46.796Z,7.75
2019-02-11T13:07:51.662Z,7.10
2019-02-11T13:08:56.418Z,9.03
2019-02-11T13:10:01.390Z,11.05
2019-02-11T13:11:06.393Z,9.80
2019-02-11T13:12:11.207Z,9.38
2019-02-11T13:13:15.910Z,9.85
2019-02-11T13:14:20.883Z,9.18
2019-02-11T13:15:57.935Z,9.35
2019-02-11T13:16:34.341Z,7.80
2019-02-11T13:17:39.203Z,7.65
2019-02-11T13:18:44.250Z,6.80
2019-02-11T13:20:06.722Z,6.75
2019-02-11T13:20:55.450Z,8.13
2019-02-11T13:22:00.360Z,7.75
2019-02-11T13:23:05.216Z,11.43
2019-02-11T13:24:10.057Z,7.97
2019-02-11T13:25:15.356Z,7.37
2019-02-11T13:26:20.320Z,7.65
2019-02-11T13:27:25.048Z,7.55
2019-02-11T13:28:29.805Z,8.25
2019-02-11T13:29:34.677Z,7.03
2019-02-11T13:30:39.437Z,9.03
2019-02-11T13:31:44.273Z,9.28
2019-02-11T13:32:49.008Z,4.62
2019-02-11T13:33:53.752Z,5.37
2019-02-11T13:34:58.468Z,6.10
2019-02-11T13:36:03.199Z,8.53
2019-02-11T13:37:07.932Z,8.43
2019-02-11T13:38:12.710Z,6.62
2019-02-11T13:39:17.479Z,6.20
2019-02-11T13:40:22.257Z,6.70
2019-02-11T13:41:27.005Z,6.12
2019-02-11T13:42:31.883Z,7.53
2019-02-11T13:43:36.626Z,6.15
2019-02-11T13:44:41.475Z,6.47
2019-02-11T13:45:46.331Z,5.62
2019-02-11T13:46:51.089Z,7.95
2019-02-11T13:47:58.509Z,6.30
2019-02-11T13:49:02.401Z,9.80
2019-02-11T13:50:07.727Z,7.90
2019-02-11T13:51:12.659Z,6.90
2019-02-11T13:52:17.628Z,9.70
2019-02-11T13:53:22.557Z,6.87
2019-02-11T13:54:27.425Z,10.18
2019-02-11T13:55:32.407Z,8.13
2019-02-11T13:56:37.331Z,18.17
2019-02-11T13:57:42.596Z,15.32
2019-02-11T13:58:51.812Z,12.20
2019-02-11T13:59:54.139Z,14.90
2019-02-11T14:00:59.048Z,10.10
2019-02-11T14:02:04.060Z,7.58
2019-02-11T14:03:09.191Z,12.33
2019-02-11T14:04:14.340Z,7.65
2019-02-11T14:05:19.471Z,6.22
2019-02-11T14:06:24.465Z,8.43
2019-02-11T14:07:29.561Z,7.10
2019-02-11T14:08:34.635Z,6.92
2019-02-11T14:09:40.094Z,7.85
2019-02-11T14:10:45.294Z,6.25